createdAt,value
2022-08-05T00:00:20.091Z,972.74
2022-08-05T00:01:27.756Z,972.73
2022-08-05T00:02:20.160Z,972.85
2022-08-05T00:03:20.041Z,972.80
2022-08-05T00:04:20.033Z,972.83
2022-08-05T00:06:01.877Z,972.84
2022-08-05T00:06:30.750Z,972.82
2022-08-05T00:07:27.103Z,972.85
2022-08-05T00:08:34.526Z,972.82
2022-08-05T00:09:20.997Z,972.86
2022-08-05T00:10:19.963Z,972.86
2022-08-05T00:11:23.903Z,972.86
2022-08-05T00:12:19.935Z,972.79
2022-08-05T00:13:19.974Z,972.90
2022-08-05T00:14:19.905Z,972.85
2022-08-05T00:15:56.310Z,972.80
2022-08-05T00:16:19.881Z,972.78
2022-08-05T00:17:20.939Z,972.78
2022-08-05T00:18:19.862Z,972.78
2022-08-05T00:19:19.833Z,972.79
2022-08-05T00:20:20.307Z,972.84
2022-08-05T00:21:19.807Z,972.87
2022-08-05T00:22:19.806Z,972.87
2022-08-05T00:23:44.639Z,972.78
2022-08-05T00:24:24.512Z,972.74
2022-08-05T00:25:19.754Z,972.79
2022-08-05T00:26:19.757Z,972.88
2022-08-05T00:27:19.729Z,972.84
2022-08-05T00:28:21.126Z,972.87
2022-08-05T00:29:22.572Z,972.87
2022-08-05T00:30:19.695Z,972.87
2022-08-05T00:31:53.962Z,972.84
2022-08-05T00:32:19.669Z,972.93
2022-08-05T00:34:54.423Z,972.87
2022-08-05T00:34:55.635Z,972.89
2022-08-05T00:35:20.308Z,972.88
2022-08-05T00:37:11.418Z,972.90
2022-08-05T00:37:20.638Z,972.93
2022-08-05T00:38:19.598Z,972.97
2022-08-05T00:39:20.644Z,972.96
2022-08-05T00:40:27.733Z,972.94
2022-08-05T00:41:19.549Z,973.07
2022-08-05T00:42:31.611Z,972.99
2022-08-05T00:43:19.516Z,973.01
2022-08-05T00:44:20.889Z,972.95
2022-08-05T00:45:39.046Z,972.90
2022-08-05T00:46:20.508Z,972.97
2022-08-05T00:47:19.471Z,973.00
2022-08-05T00:48:27.457Z,972.97
2022-08-05T00:49:19.452Z,972.97
2022-08-05T00:50:20.935Z,972.97
2022-08-05T00:51:51.178Z,972.99
2022-08-05T00:52:28.135Z,973.01
2022-08-05T00:54:00.440Z,972.97
2022-08-05T00:54:19.388Z,973.00
2022-08-05T00:55:19.367Z,973.09
2022-08-05T00:56:22.885Z,972.97
2022-08-05T00:57:20.082Z,973.04
2022-08-05T00:58:19.411Z,973.05
2022-08-05T00:59:19.310Z,972.97
2022-08-05T01:00:20.050Z,973.01
2022-08-05T01:01:41.980Z,972.96
2022-08-05T01:02:19.280Z,972.98
2022-08-05T01:03:22.740Z,972.91
2022-08-05T01:04:20.061Z,972.94
2022-08-05T01:05:19.235Z,972.95
2022-08-05T01:06:19.216Z,972.91
2022-08-05T01:07:19.212Z,972.86
2022-08-05T01:08:41.839Z,972.97
2022-08-05T01:09:20.465Z,972.96
2022-08-05T01:10:19.167Z,972.93
2022-08-05T01:11:22.542Z,972.97
2022-08-05T01:12:19.259Z,973.01
2022-08-05T01:13:19.426Z,973.06
2022-08-05T01:14:28.356Z,973.07
2022-08-05T01:15:36.187Z,973.07
2022-08-05T01:16:23.016Z,973.16
2022-08-05T01:17:19.082Z,973.13
2022-08-05T01:18:19.065Z,973.14
2022-08-05T01:19:19.055Z,973.17
2022-08-05T01:20:19.043Z,973.13
2022-08-05T01:21:22.708Z,973.14
2022-08-05T01:22:23.959Z,973.27
2022-08-05T01:23:23.205Z,973.31
2022-08-05T01:24:18.989Z,973.29
2022-08-05T01:25:18.983Z,973.28
2022-08-05T01:26:18.968Z,973.60
2022-08-05T01:27:19.407Z,973.49
2022-08-05T01:28:18.938Z,973.58
2022-08-05T01:29:18.934Z,973.55
2022-08-05T01:30:19.144Z,973.55
2022-08-05T01:31:18.900Z,973.49
2022-08-05T01:32:18.940Z,973.46
2022-08-05T01:33:19.747Z,973.48
2022-08-05T01:34:18.858Z,973.49
2022-08-05T01:35:51.061Z,973.45
2022-08-05T01:36:18.837Z,973.53
2022-08-05T01:37:25.232Z,973.58
2022-08-05T01:38:27.266Z,973.50
2022-08-05T01:39:46.421Z,973.57
2022-08-05T01:40:18.779Z,973.56
2022-08-05T01:41:18.769Z,973.66
2022-08-05T01:42:18.759Z,973.66
2022-08-05T01:43:22.271Z,973.71
2022-08-05T01:44:18.726Z,973.67
2022-08-05T01:45:18.718Z,973.74
2022-08-05T01:46:42.985Z,973.67
2022-08-05T01:47:18.695Z,973.78
2022-08-05T01:48:18.682Z,973.82
2022-08-05T01:49:24.215Z,973.83
2022-08-05T01:50:18.679Z,973.88
2022-08-05T01:51:18.655Z,973.89
2022-08-05T01:52:19.155Z,973.88
2022-08-05T01:53:54.630Z,973.87
2022-08-05T01:54:19.613Z,973.88
2022-08-05T01:55:19.608Z,973.83
2022-08-05T01:58:12.558Z,973.87
2022-08-05T01:58:18.882Z,973.91
2022-08-05T01:58:29.640Z,973.92
2022-08-05T01:59:19.561Z,973.97
2022-08-05T02:00:18.522Z,973.97
2022-08-05T02:01:24.669Z,973.84
2022-08-05T02:02:18.525Z,973.83
2022-08-05T02:03:24.408Z,973.79
2022-08-05T02:04:18.465Z,973.83
2022-08-05T02:05:18.453Z,973.80
2022-08-05T02:06:33.328Z,973.81
2022-08-05T02:07:22.071Z,973.82
2022-08-05T02:08:30.810Z,973.86
2022-08-05T02:09:20.600Z,973.84
2022-08-05T02:10:18.376Z,973.75
2022-08-05T02:11:23.870Z,973.85
2022-08-05T02:12:19.373Z,973.89
2022-08-05T02:13:18.342Z,973.89
2022-08-05T02:14:18.327Z,973.93
2022-08-05T02:15:19.625Z,974.04
2022-08-05T02:16:18.300Z,974.04
2022-08-05T02:18:28.494Z,974.09
2022-08-05T02:18:33.341Z,974.09
2022-08-05T02:19:19.289Z,974.10
2022-08-05T02:20:20.653Z,974.08
2022-08-05T02:21:18.244Z,974.04
2022-08-05T02:22:25.929Z,974.11
2022-08-05T02:23:18.214Z,974.13
2022-08-05T02:24:18.199Z,974.11
2022-08-05T02:25:18.185Z,974.12
2022-08-05T02:26:18.161Z,974.14
2022-08-05T02:27:18.158Z,974.09
2022-08-05T02:28:28.974Z,974.19
2022-08-05T02:29:21.580Z,974.11
2022-08-05T02:30:19.138Z,974.11
2022-08-05T02:31:21.256Z,974.06
2022-08-05T02:32:19.917Z,974.09
2022-08-05T02:33:24.653Z,974.01
2022-08-05T02:34:18.061Z,974.08
2022-08-05T02:35:19.198Z,974.14
2022-08-05T02:36:18.033Z,974.19
2022-08-05T02:37:18.028Z,974.16
2022-08-05T02:38:19.294Z,974.11
2022-08-05T02:39:18.070Z,974.20
2022-08-05T02:40:17.978Z,974.18
2022-08-05T02:41:18.034Z,974.17
2022-08-05T02:42:22.522Z,974.23
2022-08-05T02:43:17.946Z,974.18
2022-08-05T02:44:17.933Z,974.26
2022-08-05T02:45:17.912Z,974.28
2022-08-05T02:46:17.901Z,974.20
2022-08-05T02:47:17.887Z,974.27
2022-08-05T02:48:17.880Z,974.26
2022-08-05T02:49:17.867Z,974.27
2022-08-05T02:50:18.078Z,974.24
2022-08-05T02:51:17.838Z,974.28
2022-08-05T02:52:29.622Z,974.33
2022-08-05T02:53:19.306Z,974.28
2022-08-05T02:54:35.860Z,974.21
2022-08-05T02:55:55.079Z,974.24
2022-08-05T02:56:18.751Z,974.24
2022-08-05T02:58:12.236Z,974.14
2022-08-05T02:58:17.743Z,974.14
2022-08-05T02:59:17.726Z,974.22
2022-08-05T03:00:17.720Z,974.15
2022-08-05T03:01:19.335Z,974.21
2022-08-05T03:02:17.712Z,974.19
2022-08-05T03:03:17.721Z,974.25
2022-08-05T03:04:17.661Z,974.27
2022-08-05T03:05:17.642Z,974.30
2022-08-05T03:06:54.597Z,974.30
2022-08-05T03:07:59.140Z,974.26
2022-08-05T03:08:17.607Z,974.18
2022-08-05T03:09:18.028Z,974.30
2022-08-05T03:10:24.343Z,974.31
2022-08-05T03:11:54.739Z,974.23
2022-08-05T03:12:17.559Z,974.31
2022-08-05T03:13:17.538Z,974.31
2022-08-05T03:14:17.529Z,974.27
2022-08-05T03:15:17.513Z,974.23
2022-08-05T03:16:17.504Z,974.31
2022-08-05T03:17:17.482Z,974.23
2022-08-05T03:18:17.585Z,974.27
2022-08-05T03:19:33.776Z,974.27
2022-08-05T03:20:18.464Z,974.26
2022-08-05T03:21:17.634Z,974.26
2022-08-05T03:22:18.836Z,974.13
2022-08-05T03:23:17.411Z,974.20
2022-08-05T03:24:17.398Z,974.11
2022-08-05T03:25:33.392Z,974.24
2022-08-05T03:26:31.367Z,974.30
2022-08-05T03:27:17.382Z,974.26
2022-08-05T03:28:18.798Z,974.35
2022-08-05T03:29:18.160Z,974.36
2022-08-05T03:30:17.321Z,974.39
2022-08-05T03:31:25.862Z,974.39
2022-08-05T03:32:17.291Z,974.42
2022-08-05T03:33:17.274Z,974.43
2022-08-05T03:34:17.265Z,974.48
2022-08-05T03:35:17.243Z,974.52
2022-08-05T03:36:17.230Z,974.53
2022-08-05T03:37:18.244Z,974.59
2022-08-05T03:38:17.213Z,974.57
2022-08-05T03:39:20.085Z,974.53
2022-08-05T03:40:31.235Z,974.55
2022-08-05T03:41:17.169Z,974.53
2022-08-05T03:42:17.159Z,974.58
2022-08-05T03:44:08.930Z,974.57
2022-08-05T03:44:20.085Z,974.65
2022-08-05T03:45:22.363Z,974.59
2022-08-05T03:46:17.101Z,974.58
2022-08-05T03:47:17.082Z,974.53
2022-08-05T03:48:21.945Z,974.65
2022-08-05T03:49:17.051Z,974.71
2022-08-05T03:50:17.047Z,974.66
2022-08-05T03:52:36.992Z,974.63
2022-08-05T03:52:37.264Z,974.60
2022-08-05T03:55:34.061Z,974.62
2022-08-05T03:55:49.907Z,974.60
2022-08-05T03:56:05.556Z,974.63
2022-08-05T03:56:26.918Z,974.58
2022-08-05T03:57:17.837Z,974.57
2022-08-05T03:58:16.941Z,974.58
2022-08-05T03:59:20.444Z,974.61
2022-08-05T04:00:16.914Z,974.64
2022-08-05T04:01:16.941Z,974.65
2022-08-05T04:02:17.491Z,974.66
2022-08-05T04:03:28.310Z,974.71
2022-08-05T04:04:21.236Z,974.66
2022-08-05T04:05:16.852Z,974.72
2022-08-05T04:06:16.835Z,974.72
2022-08-05T04:07:16.840Z,974.74
2022-08-05T04:08:30.199Z,974.79
2022-08-05T04:09:20.185Z,974.75
2022-08-05T04:10:17.507Z,974.69
2022-08-05T04:11:16.759Z,974.62
2022-08-05T04:12:24.674Z,974.63
2022-08-05T04:13:17.756Z,974.64
2022-08-05T04:14:18.036Z,974.62
2022-08-05T04:15:16.779Z,974.64
2022-08-05T04:16:16.696Z,974.58
2022-08-05T04:17:16.690Z,974.55
2022-08-05T04:18:20.508Z,974.51
2022-08-05T04:19:16.662Z,974.45
2022-08-05T04:20:16.647Z,974.53
2022-08-05T04:21:24.299Z,974.37
2022-08-05T04:22:20.529Z,974.42
2022-08-05T04:23:16.604Z,974.40
2022-08-05T04:24:18.809Z,974.40
2022-08-05T04:25:16.573Z,974.38
2022-08-05T04:26:17.324Z,974.41
2022-08-05T04:27:16.637Z,974.45
2022-08-05T04:28:17.226Z,974.41
2022-08-05T04:29:16.521Z,974.39
2022-08-05T04:30:16.516Z,974.35
2022-08-05T04:31:16.494Z,974.42
2022-08-05T04:32:19.993Z,974.39
2022-08-05T04:33:16.483Z,974.41
2022-08-05T04:34:18.373Z,974.38
2022-08-05T04:35:17.499Z,974.31
2022-08-05T04:36:45.469Z,974.31
2022-08-05T04:37:16.481Z,974.39
2022-08-05T04:38:16.408Z,974.39
2022-08-05T04:39:16.527Z,974.35
2022-08-05T04:40:19.484Z,974.43
2022-08-05T04:41:16.371Z,974.44
2022-08-05T04:42:16.359Z,974.53
2022-08-05T04:43:16.912Z,974.66
2022-08-05T04:44:21.348Z,974.73
2022-08-05T04:45:23.063Z,974.82
2022-08-05T04:46:28.319Z,974.86
2022-08-05T04:47:20.038Z,974.83
2022-08-05T04:48:27.570Z,974.96
2022-08-05T04:49:17.287Z,974.92
2022-08-05T04:50:16.259Z,974.90
2022-08-05T04:51:16.235Z,974.94
2022-08-05T04:52:16.225Z,975.01
2022-08-05T04:53:16.215Z,974.90
2022-08-05T04:54:16.201Z,974.96
2022-08-05T04:55:16.182Z,974.93
2022-08-05T04:56:35.191Z,975.06
2022-08-05T04:57:16.168Z,975.18
2022-08-05T04:58:16.153Z,975.25
2022-08-05T04:59:24.072Z,975.22
2022-08-05T05:00:16.128Z,975.32
2022-08-05T05:01:16.200Z,975.46
2022-08-05T05:02:41.218Z,975.51
2022-08-05T05:03:16.887Z,975.59
2022-08-05T05:04:16.080Z,975.73
2022-08-05T05:05:26.431Z,975.76
2022-08-05T05:06:38.685Z,975.80
2022-08-05T05:07:16.087Z,975.84
2022-08-05T05:08:30.199Z,975.92
2022-08-05T05:09:17.650Z,975.88
2022-08-05T05:10:15.996Z,975.91
2022-08-05T05:11:15.985Z,975.95
2022-08-05T05:12:15.973Z,976.03
2022-08-05T05:13:15.951Z,976.00
2022-08-05T05:14:16.189Z,976.03
2022-08-05T05:15:17.526Z,976.04
2022-08-05T05:16:15.926Z,976.05
2022-08-05T05:17:22.747Z,976.04
2022-08-05T05:18:28.468Z,976.03
2022-08-05T05:19:19.401Z,976.14
2022-08-05T05:20:16.880Z,976.20
2022-08-05T05:21:15.851Z,976.11
2022-08-05T05:22:23.739Z,976.11
2022-08-05T05:23:19.853Z,976.14
2022-08-05T05:24:15.813Z,976.09
2022-08-05T05:25:16.433Z,976.21
2022-08-05T05:26:15.890Z,976.22
2022-08-05T05:27:15.795Z,976.19
2022-08-05T05:28:15.759Z,976.14
2022-08-05T05:29:15.743Z,976.18
2022-08-05T05:30:29.247Z,976.16
2022-08-05T05:31:15.712Z,976.22
2022-08-05T05:32:15.836Z,976.28
2022-08-05T05:33:17.185Z,976.33
2022-08-05T05:34:18.082Z,976.25
2022-08-05T05:35:19.895Z,976.25
2022-08-05T05:36:15.653Z,976.31
2022-08-05T05:37:15.670Z,976.26
2022-08-05T05:38:27.034Z,976.27
2022-08-05T05:39:15.673Z,976.25
2022-08-05T05:40:15.603Z,976.26
2022-08-05T05:41:16.433Z,976.34
2022-08-05T05:42:15.578Z,976.30
2022-08-05T05:43:15.557Z,976.42
2022-08-05T05:44:35.949Z,976.57
2022-08-05T05:45:15.702Z,976.50
2022-08-05T05:46:17.616Z,976.64
2022-08-05T05:47:30.477Z,976.57
2022-08-05T05:48:16.522Z,976.56
2022-08-05T05:49:22.473Z,976.49
2022-08-05T05:50:16.439Z,976.47
2022-08-05T05:51:16.149Z,976.44
2022-08-05T05:52:28.568Z,976.45
2022-08-05T05:53:21.362Z,976.44
2022-08-05T05:54:15.421Z,976.42
2022-08-05T05:55:15.401Z,976.45
2022-08-05T05:56:15.395Z,976.48
2022-08-05T05:57:19.195Z,976.49
2022-08-05T05:58:15.363Z,976.48
2022-08-05T05:59:15.357Z,976.56
2022-08-05T06:00:15.341Z,976.53
2022-08-05T06:01:15.518Z,976.67
2022-08-05T06:02:15.319Z,976.64
2022-08-05T06:03:28.584Z,976.58
2022-08-05T06:04:15.368Z,976.68
2022-08-05T06:05:16.619Z,976.68
2022-08-05T06:06:15.269Z,976.64
2022-08-05T06:07:15.257Z,976.60
2022-08-05T06:08:15.241Z,976.58
2022-08-05T06:09:17.621Z,976.69
2022-08-05T06:10:15.208Z,976.67
2022-08-05T06:11:15.193Z,976.65
2022-08-05T06:12:15.186Z,976.58
2022-08-05T06:13:15.174Z,976.61
2022-08-05T06:14:15.156Z,976.66
2022-08-05T06:15:23.976Z,976.56
2022-08-05T06:16:28.432Z,976.52
2022-08-05T06:17:21.917Z,976.54
2022-08-05T06:18:15.107Z,976.59
2022-08-05T06:19:15.095Z,976.56
2022-08-05T06:20:18.861Z,976.48
2022-08-05T06:21:16.604Z,976.42
2022-08-05T06:22:15.053Z,976.44
2022-08-05T06:23:15.045Z,976.48
2022-08-05T06:24:15.028Z,976.50
2022-08-05T06:25:59.095Z,976.38
2022-08-05T06:26:21.299Z,976.39
2022-08-05T06:28:09.488Z,976.36
2022-08-05T06:28:21.446Z,976.49
2022-08-05T06:29:42.981Z,976.48
2022-08-05T06:30:19.942Z,976.41
2022-08-05T06:31:18.104Z,976.40
2022-08-05T06:32:24.902Z,976.49
2022-08-05T06:33:18.972Z,976.45
2022-08-05T06:34:14.906Z,976.46
2022-08-05T06:35:21.934Z,976.45
2022-08-05T06:36:14.880Z,976.30
2022-08-05T06:37:14.869Z,976.40
2022-08-05T06:38:14.851Z,976.38
2022-08-05T06:39:14.875Z,976.44
2022-08-05T06:40:18.258Z,976.47
2022-08-05T06:41:15.839Z,976.41
2022-08-05T06:42:14.793Z,976.42
2022-08-05T06:43:58.966Z,976.41
2022-08-05T06:44:14.769Z,976.47
2022-08-05T06:45:20.573Z,976.53
2022-08-05T06:46:15.770Z,976.44
2022-08-05T06:47:29.939Z,976.35
2022-08-05T06:48:50.471Z,976.40
2022-08-05T06:49:14.709Z,976.33
2022-08-05T06:50:17.270Z,976.27
2022-08-05T06:51:23.908Z,976.32
2022-08-05T06:52:37.007Z,976.23
2022-08-05T06:53:22.707Z,976.24
2022-08-05T06:54:18.193Z,976.28
2022-08-05T06:55:14.640Z,976.19
2022-08-05T06:56:26.020Z,976.24
2022-08-05T06:58:03.158Z,976.27
2022-08-05T06:58:29.732Z,976.31
2022-08-05T06:59:14.585Z,976.33
2022-08-05T07:00:14.567Z,976.32
2022-08-05T07:01:14.621Z,976.25
2022-08-05T07:02:15.572Z,976.26
2022-08-05T07:03:15.560Z,976.28
2022-08-05T07:04:14.518Z,976.21
2022-08-05T07:05:18.582Z,976.17
2022-08-05T07:06:15.271Z,976.23
2022-08-05T07:07:15.219Z,976.18
2022-08-05T07:08:14.463Z,976.15
2022-08-05T07:09:14.458Z,976.23
2022-08-05T07:10:14.931Z,976.20
2022-08-05T07:11:15.478Z,976.24
2022-08-05T07:12:14.409Z,976.19
2022-08-05T07:13:14.406Z,976.20
2022-08-05T07:14:20.287Z,976.26
2022-08-05T07:15:14.389Z,976.19
2022-08-05T07:18:01.694Z,976.30
2022-08-05T07:18:02.048Z,976.30
2022-08-05T07:18:20.261Z,976.35
2022-08-05T07:19:16.038Z,976.35
2022-08-05T07:20:32.793Z,976.40
2022-08-05T07:21:15.347Z,976.39
2022-08-05T07:22:15.812Z,976.38
2022-08-05T07:23:26.427Z,976.43
2022-08-05T07:24:14.271Z,976.47
2022-08-05T07:25:23.091Z,976.51
2022-08-05T07:26:15.660Z,976.43
2022-08-05T07:27:14.340Z,976.48
2022-08-05T07:28:17.351Z,976.48
2022-08-05T07:29:14.219Z,976.59
2022-08-05T07:30:23.792Z,976.60
2022-08-05T07:31:15.210Z,976.54
2022-08-05T07:32:14.637Z,976.61
2022-08-05T07:33:16.552Z,976.60
2022-08-05T07:34:14.140Z,976.66
2022-08-05T07:36:04.910Z,976.66
2022-08-05T07:36:20.595Z,976.62
2022-08-05T07:37:14.163Z,976.61
2022-08-05T07:38:32.015Z,976.58
2022-08-05T07:39:24.443Z,976.66
2022-08-05T07:40:32.312Z,976.68
2022-08-05T07:42:09.177Z,976.69
2022-08-05T07:42:16.211Z,976.68
2022-08-05T07:43:20.278Z,976.66
2022-08-05T07:44:47.510Z,976.69
2022-08-05T07:45:56.526Z,976.68
2022-08-05T07:46:49.405Z,976.50
2022-08-05T07:47:47.479Z,976.62
2022-08-05T07:49:02.384Z,976.56
2022-08-05T07:49:54.509Z,976.56
2022-08-05T07:50:48.461Z,976.59
2022-08-05T07:51:53.334Z,976.56
2022-08-05T07:52:47.414Z,976.61
2022-08-05T07:53:50.843Z,976.65
2022-08-05T07:54:47.617Z,976.61
2022-08-05T07:56:06.183Z,976.59
2022-08-05T07:57:02.822Z,976.65
2022-08-05T07:57:55.177Z,976.59
2022-08-05T07:58:54.826Z,976.61
2022-08-05T07:59:48.953Z,976.61
2022-08-05T08:00:47.354Z,976.50
2022-08-05T08:01:52.204Z,976.54
2022-08-05T08:03:15.269Z,976.44
2022-08-05T08:03:47.273Z,976.45
2022-08-05T08:04:47.649Z,976.45
2022-08-05T08:05:49.656Z,976.48
2022-08-05T08:06:47.250Z,976.45
2022-08-05T08:07:59.522Z,976.42
2022-08-05T08:08:48.235Z,976.48
2022-08-05T08:09:47.201Z,976.45
2022-08-05T08:10:48.836Z,976.49
2022-08-05T08:11:58.985Z,976.42
2022-08-05T08:12:49.227Z,976.50
2022-08-05T08:13:49.517Z,976.44
2022-08-05T08:14:47.166Z,976.51
2022-08-05T08:16:35.232Z,976.42
2022-08-05T08:16:50.736Z,976.45
2022-08-05T08:17:52.813Z,976.43
2022-08-05T08:18:50.129Z,976.48
2022-08-05T08:20:22.635Z,976.43
2022-08-05T08:21:02.475Z,976.52
2022-08-05T08:21:48.086Z,976.50
2022-08-05T08:22:47.047Z,976.48
2022-08-05T08:24:01.846Z,976.43
2022-08-05T08:24:51.809Z,976.51
2022-08-05T08:25:59.831Z,976.53
2022-08-05T08:26:48.017Z,976.48
2022-08-05T08:27:47.825Z,976.49
2022-08-05T08:28:55.297Z,976.51
2022-08-05T08:30:05.571Z,976.49
2022-08-05T08:30:49.677Z,976.40
2022-08-05T08:31:46.996Z,976.35
2022-08-05T08:32:46.985Z,976.31
2022-08-05T08:33:51.474Z,976.38
2022-08-05T08:34:46.967Z,976.41
2022-08-05T08:35:52.771Z,976.43
2022-08-05T08:36:54.676Z,976.42
2022-08-05T08:37:46.909Z,976.42
2022-08-05T08:38:53.214Z,976.31
2022-08-05T08:39:49.479Z,976.33
2022-08-05T08:40:50.427Z,976.29
2022-08-05T08:41:52.525Z,976.23
2022-08-05T08:42:52.337Z,976.23
2022-08-05T08:45:17.948Z,976.19
2022-08-05T08:45:23.303Z,976.18
2022-08-05T08:45:47.863Z,976.14
2022-08-05T08:46:46.844Z,976.06
2022-08-05T08:48:11.702Z,976.04
2022-08-05T08:49:06.093Z,976.02
2022-08-05T08:50:12.999Z,975.99
2022-08-05T08:51:07.746Z,975.96
2022-08-05T08:52:04.407Z,976.01
2022-08-05T08:52:51.749Z,975.97
2022-08-05T08:53:46.902Z,975.81
2022-08-05T08:54:46.720Z,975.86
2022-08-05T08:56:04.591Z,975.91
2022-08-05T08:56:49.599Z,975.93
2022-08-05T08:57:58.046Z,975.94
2022-08-05T08:58:48.872Z,975.97
2022-08-05T08:59:47.372Z,975.97
2022-08-05T09:00:46.684Z,976.00
2022-08-05T09:01:46.649Z,976.04
2022-08-05T09:02:46.631Z,976.08
2022-08-05T09:03:46.606Z,976.09
2022-08-05T09:04:58.213Z,976.02
2022-08-05T09:06:07.598Z,975.99
2022-08-05T09:06:47.613Z,976.03
2022-08-05T09:07:57.283Z,976.06
2022-08-05T09:08:47.615Z,976.01
2022-08-05T09:09:46.547Z,976.04
2022-08-05T09:10:46.812Z,976.11
2022-08-05T09:11:53.650Z,976.13
2022-08-05T09:12:50.907Z,976.13
2022-08-05T09:14:10.344Z,976.08
2022-08-05T09:14:58.017Z,976.09
2022-08-05T09:15:47.511Z,976.05
2022-08-05T09:16:48.901Z,975.99
2022-08-05T09:17:49.760Z,975.99
2022-08-05T09:18:47.460Z,975.95
2022-08-05T09:20:01.896Z,975.94
2022-08-05T09:20:47.472Z,975.86
2022-08-05T09:22:22.751Z,975.91
2022-08-05T09:22:51.658Z,975.80
2022-08-05T09:23:46.347Z,975.79
2022-08-05T09:24:46.342Z,975.78
2022-08-05T09:26:01.830Z,975.82
2022-08-05T09:26:46.301Z,975.79
2022-08-05T09:28:03.961Z,975.82
2022-08-05T09:28:47.312Z,975.79
2022-08-05T09:29:48.059Z,975.72
2022-08-05T09:30:46.267Z,975.75
2022-08-05T09:32:42.046Z,975.58
2022-08-05T09:32:47.770Z,975.62
2022-08-05T09:33:46.230Z,975.60
2022-08-05T09:34:46.215Z,975.66
2022-08-05T09:35:46.213Z,975.75
2022-08-05T09:36:54.871Z,975.81
2022-08-05T09:38:17.915Z,975.89
2022-08-05T09:38:46.177Z,975.74
2022-08-05T09:39:52.267Z,975.71
2022-08-05T09:40:53.702Z,975.66
2022-08-05T09:41:46.134Z,975.69
2022-08-05T09:42:48.385Z,975.77
2022-08-05T09:43:46.127Z,975.69
2022-08-05T09:44:46.104Z,975.67
2022-08-05T09:46:06.996Z,975.67
2022-08-05T09:46:53.479Z,975.62
2022-08-05T09:47:55.325Z,975.63
2022-08-05T09:48:55.417Z,975.61
2022-08-05T09:50:00.500Z,975.56
2022-08-05T09:50:46.206Z,975.58
2022-08-05T09:51:50.016Z,975.53
2022-08-05T09:52:46.022Z,975.50
2022-08-05T09:53:55.181Z,975.61
2022-08-05T09:54:45.991Z,975.58
2022-08-05T09:55:58.367Z,975.51
2022-08-05T09:56:52.238Z,975.44
2022-08-05T09:57:45.955Z,975.50
2022-08-05T09:58:45.951Z,975.53
2022-08-05T09:59:45.936Z,975.48
2022-08-05T10:00:46.072Z,975.53
2022-08-05T10:01:46.364Z,975.45
2022-08-05T10:02:45.937Z,975.49
2022-08-05T10:03:58.936Z,975.40
2022-08-05T10:04:46.912Z,975.60
2022-08-05T10:05:45.877Z,975.42
2022-08-05T10:06:54.794Z,975.46
2022-08-05T10:08:11.007Z,975.41
2022-08-05T10:08:53.900Z,975.41
2022-08-05T10:09:45.831Z,975.42
2022-08-05T10:10:45.815Z,975.43
2022-08-05T10:11:45.812Z,975.44
2022-08-05T10:12:50.024Z,975.36
2022-08-05T10:13:48.396Z,975.37
2022-08-05T10:14:45.788Z,975.31
2022-08-05T10:15:45.775Z,975.22
2022-08-05T10:16:53.208Z,975.18
2022-08-05T10:17:54.592Z,975.21
2022-08-05T10:18:47.973Z,975.10
2022-08-05T10:20:02.856Z,975.11
2022-08-05T10:20:47.781Z,975.10
2022-08-05T10:21:45.690Z,975.01
2022-08-05T10:22:50.906Z,975.05
2022-08-05T10:24:00.113Z,975.08
2022-08-05T10:24:46.696Z,975.01
2022-08-05T10:25:45.648Z,974.98
2022-08-05T10:26:51.996Z,975.00
2022-08-05T10:28:13.878Z,975.02
2022-08-05T10:28:46.376Z,975.11
2022-08-05T10:30:07.165Z,975.04
2022-08-05T10:32:47.786Z,975.15
2022-08-05T10:32:52.721Z,975.14
2022-08-05T10:32:53.761Z,975.01
2022-08-05T10:33:45.579Z,975.41
2022-08-05T10:34:45.573Z,975.17
2022-08-05T10:35:48.623Z,975.26
2022-08-05T10:36:46.557Z,975.18
2022-08-05T10:37:45.546Z,975.05
2022-08-05T10:38:45.517Z,975.03
2022-08-05T10:40:04.198Z,975.01
2022-08-05T10:40:45.594Z,975.00
2022-08-05T10:41:47.151Z,974.93
2022-08-05T10:42:45.571Z,974.93
2022-08-05T10:43:45.601Z,974.90
2022-08-05T10:44:45.442Z,974.88
2022-08-05T10:45:45.436Z,974.69
2022-08-05T10:46:45.431Z,974.87
2022-08-05T10:47:46.981Z,975.09
2022-08-05T10:48:56.445Z,975.22
2022-08-05T10:49:48.772Z,975.20
2022-08-05T10:50:45.379Z,975.17
2022-08-05T10:51:48.614Z,975.10
2022-08-05T10:52:49.516Z,975.06
2022-08-05T10:53:45.569Z,975.04
2022-08-05T10:54:47.019Z,974.96
2022-08-05T10:56:05.206Z,974.93
2022-08-05T10:56:45.326Z,974.97
2022-08-05T10:57:45.333Z,975.26
2022-08-05T10:58:48.589Z,975.12
2022-08-05T11:00:03.307Z,975.17
2022-08-05T11:00:46.339Z,975.10
2022-08-05T11:01:54.513Z,975.01
2022-08-05T11:02:50.609Z,975.06
2022-08-05T11:03:45.288Z,974.99
2022-08-05T11:04:45.237Z,974.95
2022-08-05T11:05:45.233Z,974.88
2022-08-05T11:06:45.235Z,974.91
2022-08-05T11:08:02.418Z,974.92
2022-08-05T11:08:45.202Z,974.94
2022-08-05T11:09:46.525Z,974.93
2022-08-05T11:10:49.963Z,974.89
2022-08-05T11:11:52.598Z,974.80
2022-08-05T11:12:45.337Z,974.84
2022-08-05T11:13:57.868Z,974.80
2022-08-05T11:15:11.825Z,974.83
2022-08-05T11:16:00.068Z,974.87
2022-08-05T11:16:56.665Z,974.95
2022-08-05T11:17:59.554Z,975.00
2022-08-05T11:18:46.975Z,975.00
2022-08-05T11:20:11.016Z,975.01
2022-08-05T11:20:45.082Z,975.01
2022-08-05T11:21:49.481Z,975.05
2022-08-05T11:22:49.855Z,974.99
2022-08-05T11:24:04.074Z,975.03
2022-08-05T11:24:50.664Z,975.03
2022-08-05T11:26:05.499Z,975.05
2022-08-05T11:26:49.708Z,975.06
2022-08-05T11:27:51.347Z,975.11
2022-08-05T11:28:44.993Z,975.18
2022-08-05T11:29:44.986Z,975.05
2022-08-05T11:30:44.988Z,975.17
2022-08-05T11:31:57.453Z,975.08
2022-08-05T11:32:44.953Z,975.11
2022-08-05T11:33:47.936Z,975.13
2022-08-05T11:34:51.420Z,975.12
2022-08-05T11:36:08.002Z,975.16
2022-08-05T11:36:44.929Z,975.15
2022-08-05T11:38:28.357Z,975.12
2022-08-05T11:38:45.736Z,975.10
2022-08-05T11:39:48.178Z,975.11
2022-08-05T11:40:44.890Z,975.07
2022-08-05T11:41:58.035Z,975.08
2022-08-05T11:42:45.938Z,975.18
2022-08-05T11:44:04.787Z,975.19
2022-08-05T11:44:53.743Z,975.27
2022-08-05T11:46:23.465Z,975.24
2022-08-05T11:46:58.569Z,975.22
2022-08-05T11:47:48.258Z,975.24
2022-08-05T11:48:44.804Z,975.25
2022-08-05T11:49:49.590Z,975.22
2022-08-05T11:50:44.804Z,975.22
2022-08-05T11:51:49.498Z,975.27
2022-08-05T11:52:46.131Z,975.23
2022-08-05T11:53:44.759Z,975.17
2022-08-05T11:54:48.429Z,975.25
2022-08-05T11:55:45.767Z,975.21
2022-08-05T11:56:44.740Z,975.23
2022-08-05T11:58:09.111Z,975.22
2022-08-05T11:58:53.020Z,975.26
2022-08-05T11:59:49.763Z,975.20
2022-08-05T12:00:46.907Z,975.20
2022-08-05T12:01:44.698Z,975.18
2022-08-05T12:02:44.784Z,975.16
2022-08-05T12:03:44.685Z,975.16
2022-08-05T12:04:45.683Z,975.20
2022-08-05T12:05:44.643Z,975.17
2022-08-05T12:06:48.835Z,975.20
2022-08-05T12:08:08.752Z,975.16
2022-08-05T12:08:49.748Z,975.22
2022-08-05T12:09:53.727Z,975.20
2022-08-05T12:10:45.707Z,975.19
2022-08-05T12:11:44.599Z,975.15
2022-08-05T12:12:59.233Z,975.12
2022-08-05T12:13:48.648Z,975.13
2022-08-05T12:14:47.243Z,975.15
2022-08-05T12:15:44.554Z,975.15
2022-08-05T12:16:45.401Z,975.09
2022-08-05T12:18:03.822Z,975.09
2022-08-05T12:18:52.377Z,975.11
2022-08-05T12:20:16.815Z,975.04
2022-08-05T12:20:44.499Z,975.04
2022-08-05T12:21:44.489Z,975.06
2022-08-05T12:22:46.292Z,974.97
2022-08-05T12:23:44.477Z,975.00
2022-08-05T12:24:49.739Z,974.97
2022-08-05T12:25:44.481Z,974.91
2022-08-05T12:26:44.621Z,974.96
2022-08-05T12:27:53.157Z,975.05
2022-08-05T12:28:45.472Z,974.96